sensor_id;sensor_type;location;lat;lon;timestamp;pressure;altitude;pressure_sealevel;temperature
69545;BMP180;56766;52.260;20.746;2023-06-10T00:00:37;100440.20;;;16.60
69545;BMP180;56766;52.260;20.746;2023-06-10T00:03:24;100439.20;;;16.60
69545;BMP180;56766;52.260;20.746;2023-06-10T00:05:51;100444.00;;;16.62
69545;BMP180;56766;52.260;20.746;2023-06-10T00:08:18;100437.40;;;16.66
69545;BMP180;56766;52.260;20.746;2023-06-10T00:10:46;100440.80;;;16.70
69545;BMP180;56766;52.260;20.746;2023-06-10T00:13:12;100438.20;;;16.70
69545;BMP180;56766;52.260;20.746;2023-06-10T00:15:39;100441.80;;;16.68
69545;BMP180;56766;52.260;20.746;2023-06-10T00:18:07;100442.00;;;16.60
69545;BMP180;56766;52.260;20.746;2023-06-10T00:20:36;100441.20;;;16.60
69545;BMP180;56766;52.260;20.746;2023-06-10T00:23:04;100433.60;;;16.60
69545;BMP180;56766;52.260;20.746;2023-06-10T00:25:33;100429.80;;;16.60
69545;BMP180;56766;52.260;20.746;2023-06-10T00:28:01;100429.80;;;16.60
69545;BMP180;56766;52.260;20.746;2023-06-10T00:30:28;100433.40;;;16.60
69545;BMP180;56766;52.260;20.746;2023-06-10T00:32:55;100430.60;;;16.60
69545;BMP180;56766;52.260;20.746;2023-06-10T00:35:22;100429.40;;;16.50
69545;BMP180;56766;52.260;20.746;2023-06-10T00:37:48;100436.20;;;16.50
69545;BMP180;56766;52.260;20.746;2023-06-10T00:40:16;100436.80;;;16.50
69545;BMP180;56766;52.260;20.746;2023-06-10T00:42:44;100430.60;;;16.40
69545;BMP180;56766;52.260;20.746;2023-06-10T00:45:11;100435.40;;;16.40
69545;BMP180;56766;52.260;20.746;2023-06-10T00:47:39;100435.40;;;16.36
69545;BMP180;56766;52.260;20.746;2023-06-10T00:50:07;100435.00;;;16.30
69545;BMP180;56766;52.260;20.746;2023-06-10T00:52:35;100436.80;;;16.30
69545;BMP180;56766;52.260;20.746;2023-06-10T00:55:05;100431.80;;;16.30
69545;BMP180;56766;52.260;20.746;2023-06-10T00:57:34;100438.20;;;16.30
69545;BMP180;56766;52.260;20.746;2023-06-10T01:00:01;100439.20;;;16.22
69545;BMP180;56766;52.260;20.746;2023-06-10T01:02:28;100441.60;;;16.20
69545;BMP180;56766;52.260;20.746;2023-06-10T01:04:54;100439.60;;;16.22
69545;BMP180;56766;52.260;20.746;2023-06-10T01:07:30;100437.40;;;16.28
69545;BMP180;56766;52.260;20.746;2023-06-10T01:13:02;100432.00;;;16.20
69545;BMP180;56766;52.260;20.746;2023-06-10T01:15:33;100432.00;;;16.14
69545;BMP180;56766;52.260;20.746;2023-06-10T01:18:07;100430.40;;;16.10
69545;BMP180;56766;52.260;20.746;2023-06-10T01:20:43;100433.80;;;16.00
69545;BMP180;56766;52.260;20.746;2023-06-10T01:23:11;100428.40;;;16.00
69545;BMP180;56766;52.260;20.746;2023-06-10T01:25:51;100429.60;;;15.90
69545;BMP180;56766;52.260;20.746;2023-06-10T01:28:29;100436.20;;;15.90
69545;BMP180;56766;52.260;20.746;2023-06-10T01:33:52;100437.20;;;15.80
69545;BMP180;56766;52.260;20.746;2023-06-10T01:36:23;100440.00;;;15.80
69545;BMP180;56766;52.260;20.746;2023-06-10T01:38:55;100446.80;;;15.70
69545;BMP180;56766;52.260;20.746;2023-06-10T01:41:22;100447.60;;;15.60
69545;BMP180;56766;52.260;20.746;2023-06-10T01:43:49;100453.60;;;15.58
69545;BMP180;56766;52.260;20.746;2023-06-10T01:46:16;100452.20;;;15.50
69545;BMP180;56766;52.260;20.746;2023-06-10T01:48:46;100448.20;;;15.46
69545;BMP180;56766;52.260;20.746;2023-06-10T01:51:13;100456.80;;;15.40
69545;BMP180;56766;52.260;20.746;2023-06-10T01:53:39;100455.20;;;15.40
69545;BMP180;56766;52.260;20.746;2023-06-10T01:56:06;100457.60;;;15.40
69545;BMP180;56766;52.260;20.746;2023-06-10T01:58:33;100460.00;;;15.40
69545;BMP180;56766;52.260;20.746;2023-06-10T02:01:00;100457.40;;;15.40
69545;BMP180;56766;52.260;20.746;2023-06-10T02:03:26;100462.20;;;15.40
69545;BMP180;56766;52.260;20.746;2023-06-10T02:05:53;100467.00;;;15.40
69545;BMP180;56766;52.260;20.746;2023-06-10T02:08:20;100471.20;;;15.36
69545;BMP180;56766;52.260;20.746;2023-06-10T02:10:46;100466.60;;;15.32
69545;BMP180;56766;52.260;20.746;2023-06-10T02:13:13;100468.40;;;15.40
69545;BMP180;56766;52.260;20.746;2023-06-10T02:15:40;100473.80;;;15.40
69545;BMP180;56766;52.260;20.746;2023-06-10T02:18:06;100469.20;;;15.50
69545;BMP180;56766;52.260;20.746;2023-06-10T02:20:33;100468.20;;;15.50
69545;BMP180;56766;52.260;20.746;2023-06-10T02:23:00;100467.20;;;15.50
69545;BMP180;56766;52.260;20.746;2023-06-10T02:25:27;100468.40;;;15.58
69545;BMP180;56766;52.260;20.746;2023-06-10T02:27:53;100466.60;;;15.60
69545;BMP180;56766;52.260;20.746;2023-06-10T02:30:20;100471.20;;;15.60
69545;BMP180;56766;52.260;20.746;2023-06-10T02:32:47;100470.60;;;15.60
69545;BMP180;56766;52.260;20.746;2023-06-10T02:35:14;100468.20;;;15.60
69545;BMP180;56766;52.260;20.746;2023-06-10T02:37:41;100471.40;;;15.62
69545;BMP180;56766;52.260;20.746;2023-06-10T02:40:09;100470.20;;;15.70
69545;BMP180;56766;52.260;20.746;2023-06-10T02:42:36;100474.40;;;15.70
69545;BMP180;56766;52.260;20.746;2023-06-10T02:45:04;100474.00;;;15.80
69545;BMP180;56766;52.260;20.746;2023-06-10T02:47:31;100471.60;;;15.80
69545;BMP180;56766;52.260;20.746;2023-06-10T02:49:58;100477.80;;;15.88
69545;BMP180;56766;52.260;20.746;2023-06-10T02:52:25;100474.40;;;15.90
69545;BMP180;56766;52.260;20.746;2023-06-10T02:54:51;100469.20;;;15.90
69545;BMP180;56766;52.260;20.746;2023-06-10T02:57:18;100479.20;;;15.98
69545;BMP180;56766;52.260;20.746;2023-06-10T02:59:45;100482.80;;;16.00
69545;BMP180;56766;52.260;20.746;2023-06-10T03:02:11;100484.80;;;16.10
69545;BMP180;56766;52.260;20.746;2023-06-10T03:04:38;100477.80;;;16.10
69545;BMP180;56766;52.260;20.746;2023-06-10T03:07:05;100485.60;;;16.20
69545;BMP180;56766;52.260;20.746;2023-06-10T03:09:34;100485.60;;;16.20
69545;BMP180;56766;52.260;20.746;2023-06-10T03:12:01;100487.60;;;16.30
69545;BMP180;56766;52.260;20.746;2023-06-10T03:14:28;100491.00;;;16.30
69545;BMP180;56766;52.260;20.746;2023-06-10T03:16:54;100487.80;;;16.40
69545;BMP180;56766;52.260;20.746;2023-06-10T03:19:21;100489.40;;;16.50
69545;BMP180;56766;52.260;20.746;2023-06-10T03:21:57;100489.60;;;16.88
69545;BMP180;56766;52.260;20.746;2023-06-10T03:24:24;100490.00;;;17.44
69545;BMP180;56766;52.260;20.746;2023-06-10T03:26:51;100495.80;;;17.86
69545;BMP180;56766;52.260;20.746;2023-06-10T03:29:18;100489.20;;;18.10
69545;BMP180;56766;52.260;20.746;2023-06-10T03:31:44;100490.60;;;18.44
69545;BMP180;56766;52.260;20.746;2023-06-10T03:34:11;100488.20;;;18.78
69545;BMP180;56766;52.260;20.746;2023-06-10T03:36:38;100498.80;;;19.18
69545;BMP180;56766;52.260;20.746;2023-06-10T03:39:09;100489.80;;;19.56
69545;BMP180;56766;52.260;20.746;2023-06-10T03:41:36;100500.20;;;19.92
69545;BMP180;56766;52.260;20.746;2023-06-10T03:44:02;100496.40;;;20.28
69545;BMP180;56766;52.260;20.746;2023-06-10T03:46:30;100497.20;;;20.60
69545;BMP180;56766;52.260;20.746;2023-06-10T03:48:56;100500.40;;;20.58
69545;BMP180;56766;52.260;20.746;2023-06-10T03:51:23;100505.40;;;20.40
69545;BMP180;56766;52.260;20.746;2023-06-10T03:53:50;100501.40;;;20.12
69545;BMP180;56766;52.260;20.746;2023-06-10T03:56:17;100506.80;;;19.90
69545;BMP180;56766;52.260;20.746;2023-06-10T03:58:44;100507.80;;;19.70
69545;BMP180;56766;52.260;20.746;2023-06-10T04:01:11;100502.20;;;19.50
69545;BMP180;56766;52.260;20.746;2023-06-10T04:03:39;100507.00;;;19.32
69545;BMP180;56766;52.260;20.746;2023-06-10T04:06:08;100510.60;;;19.22
69545;BMP180;56766;52.260;20.746;2023-06-10T04:08:35;100513.80;;;19.16
69545;BMP180;56766;52.260;20.746;2023-06-10T04:11:02;100519.20;;;19.10
69545;BMP180;56766;52.260;20.746;2023-06-10T04:13:29;100522.20;;;19.00
69545;BMP180;56766;52.260;20.746;2023-06-10T04:15:56;100523.00;;;19.00
69545;BMP180;56766;52.260;20.746;2023-06-10T04:18:22;100524.20;;;19.00
69545;BMP180;56766;52.260;20.746;2023-06-10T04:20:49;100519.60;;;19.00
69545;BMP180;56766;52.260;20.746;2023-06-10T04:23:16;100520.00;;;19.16
69545;BMP180;56766;52.260;20.746;2023-06-10T04:25:43;100520.80;;;19.54
69545;BMP180;56766;52.260;20.746;2023-06-10T04:28:10;100524.20;;;19.92
69545;BMP180;56766;52.260;20.746;2023-06-10T04:30:36;100522.00;;;20.36
69545;BMP180;56766;52.260;20.746;2023-06-10T04:33:03;100521.00;;;20.74
69545;BMP180;56766;52.260;20.746;2023-06-10T04:35:30;100522.20;;;21.10
69545;BMP180;56766;52.260;20.746;2023-06-10T04:37:56;100525.00;;;21.56
69545;BMP180;56766;52.260;20.746;2023-06-10T04:40:23;100528.80;;;21.98
69545;BMP180;56766;52.260;20.746;2023-06-10T04:42:49;100527.00;;;22.10
69545;BMP180;56766;52.260;20.746;2023-06-10T04:45:16;100529.60;;;22.48
69545;BMP180;56766;52.260;20.746;2023-06-10T04:47:43;100534.00;;;22.82
69545;BMP180;56766;52.260;20.746;2023-06-10T04:50:10;100531.40;;;23.20
69545;BMP180;56766;52.260;20.746;2023-06-10T04:52:36;100538.80;;;23.46
69545;BMP180;56766;52.260;20.746;2023-06-10T04:55:03;100537.00;;;23.80
69545;BMP180;56766;52.260;20.746;2023-06-10T04:57:30;100529.60;;;23.90
69545;BMP180;56766;52.260;20.746;2023-06-10T04:59:57;100532.20;;;23.90
69545;BMP180;56766;52.260;20.746;2023-06-10T05:02:23;100534.40;;;23.90
69545;BMP180;56766;52.260;20.746;2023-06-10T05:04:50;100538.40;;;23.90
69545;BMP180;56766;52.260;20.746;2023-06-10T05:07:17;100535.80;;;23.88
69545;BMP180;56766;52.260;20.746;2023-06-10T05:09:44;100537.80;;;23.96
69545;BMP180;56766;52.260;20.746;2023-06-10T05:12:11;100534.20;;;24.18
69545;BMP180;56766;52.260;20.746;2023-06-10T05:14:38;100543.00;;;24.30
69545;BMP180;56766;52.260;20.746;2023-06-10T05:17:05;100542.80;;;24.44
69545;BMP180;56766;52.260;20.746;2023-06-10T05:19:34;100543.60;;;24.50
69545;BMP180;56766;52.260;20.746;2023-06-10T05:22:02;100543.20;;;24.30
69545;BMP180;56766;52.260;20.746;2023-06-10T05:24:29;100543.20;;;23.96
69545;BMP180;56766;52.260;20.746;2023-06-10T05:26:55;100547.80;;;23.88
69545;BMP180;56766;52.260;20.746;2023-06-10T05:29:22;100552.20;;;23.80
69545;BMP180;56766;52.260;20.746;2023-06-10T05:31:49;100546.40;;;23.60
69545;BMP180;56766;52.260;20.746;2023-06-10T05:34:16;100557.60;;;23.50
69545;BMP180;56766;52.260;20.746;2023-06-10T05:36:42;100550.80;;;23.40
69545;BMP180;56766;52.260;20.746;2023-06-10T05:39:10;100551.20;;;23.30
69545;BMP180;56766;52.260;20.746;2023-06-10T05:41:36;100553.40;;;23.20
69545;BMP180;56766;52.260;20.746;2023-06-10T05:44:03;100554.20;;;23.02
69545;BMP180;56766;52.260;20.746;2023-06-10T05:46:30;100559.00;;;23.00
69545;BMP180;56766;52.260;20.746;2023-06-10T05:48:57;100558.60;;;22.90
69545;BMP180;56766;52.260;20.746;2023-06-10T05:51:24;100559.00;;;22.90
69545;BMP180;56766;52.260;20.746;2023-06-10T05:53:51;100561.80;;;22.90
69545;BMP180;56766;52.260;20.746;2023-06-10T05:56:17;100559.80;;;23.00
69545;BMP180;56766;52.260;20.746;2023-06-10T05:58:44;100562.20;;;23.00
69545;BMP180;56766;52.260;20.746;2023-06-10T06:01:11;100565.00;;;23.10
69545;BMP180;56766;52.260;20.746;2023-06-10T06:03:37;100565.20;;;23.10
69545;BMP180;56766;52.260;20.746;2023-06-10T06:06:04;100564.60;;;23.10
69545;BMP180;56766;52.260;20.746;2023-06-10T06:08:31;100568.60;;;23.24
69545;BMP180;56766;52.260;20.746;2023-06-10T06:10:58;100565.40;;;23.40
69545;BMP180;56766;52.260;20.746;2023-06-10T06:13:25;100569.40;;;23.40
69545;BMP180;56766;52.260;20.746;2023-06-10T06:15:51;100568.00;;;23.30
69545;BMP180;56766;52.260;20.746;2023-06-10T06:18:19;100567.60;;;23.40
69545;BMP180;56766;52.260;20.746;2023-06-10T06:20:46;100567.00;;;23.50
69545;BMP180;56766;52.260;20.746;2023-06-10T06:23:12;100563.20;;;23.50
69545;BMP180;56766;52.260;20.746;2023-06-10T06:25:39;100567.40;;;23.50
69545;BMP180;56766;52.260;20.746;2023-06-10T06:28:07;100564.40;;;23.48
69545;BMP180;56766;52.260;20.746;2023-06-10T06:30:37;100564.00;;;23.60
69545;BMP180;56766;52.260;20.746;2023-06-10T06:33:03;100567.40;;;23.70
69545;BMP180;56766;52.260;20.746;2023-06-10T06:35:35;100563.00;;;23.70
69545;BMP180;56766;52.260;20.746;2023-06-10T06:38:02;100565.80;;;23.70
69545;BMP180;56766;52.260;20.746;2023-06-10T06:40:30;100565.20;;;23.70
69545;BMP180;56766;52.260;20.746;2023-06-10T06:42:57;100566.00;;;23.60
69545;BMP180;56766;52.260;20.746;2023-06-10T06:45:23;100573.20;;;23.50
69545;BMP180;56766;52.260;20.746;2023-06-10T06:47:50;100574.20;;;23.50
69545;BMP180;56766;52.260;20.746;2023-06-10T06:50:19;100577.40;;;23.60
69545;BMP180;56766;52.260;20.746;2023-06-10T06:52:45;100579.80;;;23.70
69545;BMP180;56766;52.260;20.746;2023-06-10T06:55:12;100577.60;;;23.74
69545;BMP180;56766;52.260;20.746;2023-06-10T06:57:39;100580.80;;;23.80
69545;BMP180;56766;52.260;20.746;2023-06-10T07:00:06;100576.20;;;23.88
69545;BMP180;56766;52.260;20.746;2023-06-10T07:02:35;100574.00;;;23.90
69545;BMP180;56766;52.260;20.746;2023-06-10T07:05:02;100578.00;;;23.78
69545;BMP180;56766;52.260;20.746;2023-06-10T07:07:29;100578.60;;;23.70
69545;BMP180;56766;52.260;20.746;2023-06-10T07:09:56;100579.20;;;23.80
69545;BMP180;56766;52.260;20.746;2023-06-10T07:12:23;100586.20;;;23.80
69545;BMP180;56766;52.260;20.746;2023-06-10T07:14:51;100586.80;;;23.90
69545;BMP180;56766;52.260;20.746;2023-06-10T07:17:17;100586.20;;;24.10
69545;BMP180;56766;52.260;20.746;2023-06-10T07:19:45;100584.40;;;24.20
69545;BMP180;56766;52.260;20.746;2023-06-10T07:22:12;100582.60;;;24.40
69545;BMP180;56766;52.260;20.746;2023-06-10T07:24:39;100584.60;;;24.40
69545;BMP180;56766;52.260;20.746;2023-06-10T07:27:06;100587.80;;;24.50
69545;BMP180;56766;52.260;20.746;2023-06-10T07:29:33;100590.00;;;24.58
69545;BMP180;56766;52.260;20.746;2023-06-10T07:32:03;100584.20;;;24.60
69545;BMP180;56766;52.260;20.746;2023-06-10T07:34:30;100588.80;;;24.60
69545;BMP180;56766;52.260;20.746;2023-06-10T07:36:57;100591.40;;;24.74
69545;BMP180;56766;52.260;20.746;2023-06-10T07:39:23;100595.80;;;24.80
69545;BMP180;56766;52.260;20.746;2023-06-10T07:41:50;100594.00;;;24.80
69545;BMP180;56766;52.260;20.746;2023-06-10T07:44:20;100601.20;;;24.90
69545;BMP180;56766;52.260;20.746;2023-06-10T07:46:46;100598.20;;;24.90
69545;BMP180;56766;52.260;20.746;2023-06-10T07:49:13;100608.40;;;25.00
69545;BMP180;56766;52.260;20.746;2023-06-10T07:51:40;100603.80;;;25.00
69545;BMP180;56766;52.260;20.746;2023-06-10T07:54:06;100600.40;;;25.10
69545;BMP180;56766;52.260;20.746;2023-06-10T07:56:33;100603.60;;;25.10
69545;BMP180;56766;52.260;20.746;2023-06-10T07:59:00;100602.00;;;25.10
69545;BMP180;56766;52.260;20.746;2023-06-10T08:01:26;100608.60;;;25.10
69545;BMP180;56766;52.260;20.746;2023-06-10T08:03:53;100610.00;;;25.10
69545;BMP180;56766;52.260;20.746;2023-06-10T08:06:20;100610.60;;;25.10
69545;BMP180;56766;52.260;20.746;2023-06-10T08:08:46;100613.60;;;25.06
69545;BMP180;56766;52.260;20.746;2023-06-10T08:11:13;100616.20;;;25.16
69545;BMP180;56766;52.260;20.746;2023-06-10T08:13:40;100615.40;;;25.20
69545;BMP180;56766;52.260;20.746;2023-06-10T08:16:07;100615.80;;;25.00
69545;BMP180;56766;52.260;20.746;2023-06-10T08:18:34;100619.00;;;24.80
69545;BMP180;56766;52.260;20.746;2023-06-10T08:21:00;100620.00;;;24.70
69545;BMP180;56766;52.260;20.746;2023-06-10T08:23:27;100622.60;;;24.60
69545;BMP180;56766;52.260;20.746;2023-06-10T08:25:54;100625.80;;;24.40
69545;BMP180;56766;52.260;20.746;2023-06-10T08:28:22;100631.80;;;24.20
69545;BMP180;56766;52.260;20.746;2023-06-10T08:30:48;100626.60;;;24.14
69545;BMP180;56766;52.260;20.746;2023-06-10T08:33:15;100628.20;;;24.20
69545;BMP180;56766;52.260;20.746;2023-06-10T08:35:43;100628.20;;;24.30
69545;BMP180;56766;52.260;20.746;2023-06-10T08:38:09;100625.20;;;24.36
69545;BMP180;56766;52.260;20.746;2023-06-10T08:40:37;100629.00;;;24.40
69545;BMP180;56766;52.260;20.746;2023-06-10T08:43:15;100621.00;;;24.40
69545;BMP180;56766;52.260;20.746;2023-06-10T08:45:49;100625.60;;;24.50
69545;BMP180;56766;52.260;20.746;2023-06-10T08:48:19;100621.00;;;24.46
69545;BMP180;56766;52.260;20.746;2023-06-10T08:50:49;100627.20;;;24.40
69545;BMP180;56766;52.260;20.746;2023-06-10T08:53:19;100622.80;;;24.40
69545;BMP180;56766;52.260;20.746;2023-06-10T08:55:51;100626.00;;;24.46
69545;BMP180;56766;52.260;20.746;2023-06-10T08:58:19;100622.80;;;24.60
69545;BMP180;56766;52.260;20.746;2023-06-10T09:00:47;100628.20;;;24.80
69545;BMP180;56766;52.260;20.746;2023-06-10T09:03:13;100627.20;;;25.00
69545;BMP180;56766;52.260;20.746;2023-06-10T09:05:41;100627.20;;;25.18
69545;BMP180;56766;52.260;20.746;2023-06-10T09:08:09;100630.00;;;25.10
69545;BMP180;56766;52.260;20.746;2023-06-10T09:10:36;100620.80;;;25.10
69545;BMP180;56766;52.260;20.746;2023-06-10T09:13:03;100625.40;;;25.10
69545;BMP180;56766;52.260;20.746;2023-06-10T09:15:30;100622.40;;;25.20
69545;BMP180;56766;52.260;20.746;2023-06-10T09:17:57;100625.20;;;25.20
69545;BMP180;56766;52.260;20.746;2023-06-10T09:20:23;100629.20;;;25.30
69545;BMP180;56766;52.260;20.746;2023-06-10T09:22:51;100628.40;;;25.20
69545;BMP180;56766;52.260;20.746;2023-06-10T09:25:18;100628.60;;;25.38
69545;BMP180;56766;52.260;20.746;2023-06-10T09:27:51;100627.80;;;25.50
69545;BMP180;56766;52.260;20.746;2023-06-10T09:30:31;100624.80;;;25.60
69545;BMP180;56766;52.260;20.746;2023-06-10T09:33:02;100634.40;;;25.70
69545;BMP180;56766;52.260;20.746;2023-06-10T09:35:30;100640.00;;;25.90
69545;BMP180;56766;52.260;20.746;2023-06-10T09:37:59;100631.00;;;26.00
69545;BMP180;56766;52.260;20.746;2023-06-10T09:40:27;100635.60;;;26.00
69545;BMP180;56766;52.260;20.746;2023-06-10T09:43:00;100631.00;;;25.80
69545;BMP180;56766;52.260;20.746;2023-06-10T09:45:32;100628.40;;;25.90
69545;BMP180;56766;52.260;20.746;2023-06-10T09:47:59;100624.20;;;26.00
69545;BMP180;56766;52.260;20.746;2023-06-10T09:50:26;100631.40;;;26.20
69545;BMP180;56766;52.260;20.746;2023-06-10T09:52:53;100630.00;;;26.40
69545;BMP180;56766;52.260;20.746;2023-06-10T09:55:20;100635.00;;;26.50
69545;BMP180;56766;52.260;20.746;2023-06-10T09:57:49;100630.40;;;26.56
69545;BMP180;56766;52.260;20.746;2023-06-10T10:00:22;100628.40;;;26.60
69545;BMP180;56766;52.260;20.746;2023-06-10T10:02:53;100638.60;;;26.44
69545;BMP180;56766;52.260;20.746;2023-06-10T10:05:23;100637.40;;;26.20
69545;BMP180;56766;52.260;20.746;2023-06-10T10:07:50;100632.80;;;26.20
69545;BMP180;56766;52.260;20.746;2023-06-10T10:10:20;100629.80;;;26.24
69545;BMP180;56766;52.260;20.746;2023-06-10T10:12:53;100624.00;;;26.20
69545;BMP180;56766;52.260;20.746;2023-06-10T10:15:29;100625.80;;;26.34
69545;BMP180;56766;52.260;20.746;2023-06-10T10:18:14;100622.60;;;26.50
69545;BMP180;56766;52.260;20.746;2023-06-10T10:20:50;100624.60;;;26.60
69545;BMP180;56766;52.260;20.746;2023-06-10T10:23:31;100619.00;;;26.70
69545;BMP180;56766;52.260;20.746;2023-06-10T10:26:04;100615.60;;;26.72
69545;BMP180;56766;52.260;20.746;2023-06-10T10:29:11;100610.80;;;26.90
69545;BMP180;56766;52.260;20.746;2023-06-10T10:31:42;100622.20;;;27.00
69545;BMP180;56766;52.260;20.746;2023-06-10T10:34:21;100618.60;;;27.00
69545;BMP180;56766;52.260;20.746;2023-06-10T10:36:50;100609.80;;;27.10
69545;BMP180;56766;52.260;20.746;2023-06-10T10:39:19;100610.40;;;27.16
69545;BMP180;56766;52.260;20.746;2023-06-10T10:41:49;100612.60;;;27.20
69545;BMP180;56766;52.260;20.746;2023-06-10T10:44:17;100600.20;;;27.30
69545;BMP180;56766;52.260;20.746;2023-06-10T10:46:50;100607.40;;;27.20
69545;BMP180;56766;52.260;20.746;2023-06-10T10:49:19;100612.00;;;27.28
69545;BMP180;56766;52.260;20.746;2023-06-10T10:52:01;100609.20;;;27.30
69545;BMP180;56766;52.260;20.746;2023-06-10T10:54:35;100611.00;;;27.30
69545;BMP180;56766;52.260;20.746;2023-06-10T10:57:21;100603.00;;;27.30
69545;BMP180;56766;52.260;20.746;2023-06-10T11:02:35;100599.80;;;27.40
69545;BMP180;56766;52.260;20.746;2023-06-10T11:05:07;100603.00;;;27.50
69545;BMP180;56766;52.260;20.746;2023-06-10T11:07:35;100601.20;;;27.50
69545;BMP180;56766;52.260;20.746;2023-06-10T11:10:10;100602.80;;;27.70
69545;BMP180;56766;52.260;20.746;2023-06-10T11:12:50;100604.40;;;27.80
69545;BMP180;56766;52.260;20.746;2023-06-10T11:15:28;100596.80;;;27.90
69545;BMP180;56766;52.260;20.746;2023-06-10T11:18:20;100600.00;;;27.90
69545;BMP180;56766;52.260;20.746;2023-06-10T11:34:04;100589.60;;;27.90
69545;BMP180;56766;52.260;20.746;2023-06-10T11:36:36;100592.60;;;27.90
69545;BMP180;56766;52.260;20.746;2023-06-10T11:39:05;100592.80;;;27.92
69545;BMP180;56766;52.260;20.746;2023-06-10T11:41:34;100590.40;;;28.00
69545;BMP180;56766;52.260;20.746;2023-06-10T11:44:12;100586.00;;;28.18
69545;BMP180;56766;52.260;20.746;2023-06-10T11:46:40;100588.80;;;28.30
69545;BMP180;56766;52.260;20.746;2023-06-10T11:49:09;100586.80;;;28.40
69545;BMP180;56766;52.260;20.746;2023-06-10T11:51:38;100588.20;;;28.56
69545;BMP180;56766;52.260;20.746;2023-06-10T11:54:10;100575.80;;;28.70
69545;BMP180;56766;52.260;20.746;2023-06-10T11:56:37;100572.20;;;28.80
69545;BMP180;56766;52.260;20.746;2023-06-10T11:59:06;100574.80;;;28.90
69545;BMP180;56766;52.260;20.746;2023-06-10T12:01:42;100580.80;;;28.90
69545;BMP180;56766;52.260;20.746;2023-06-10T12:04:12;100582.80;;;28.90
69545;BMP180;56766;52.260;20.746;2023-06-10T12:06:49;100576.00;;;28.72
69545;BMP180;56766;52.260;20.746;2023-06-10T12:09:28;100575.80;;;28.74
69545;BMP180;56766;52.260;20.746;2023-06-10T12:12:05;100588.80;;;28.70
69545;BMP180;56766;52.260;20.746;2023-06-10T12:14:55;100591.00;;;28.42
69545;BMP180;56766;52.260;20.746;2023-06-10T12:20:07;100583.80;;;28.50
69545;BMP180;56766;52.260;20.746;2023-06-10T12:22:44;100575.80;;;28.70
69545;BMP180;56766;52.260;20.746;2023-06-10T12:25:11;100575.00;;;28.82
69545;BMP180;56766;52.260;20.746;2023-06-10T12:27:53;100568.00;;;29.06
69545;BMP180;56766;52.260;20.746;2023-06-10T12:30:25;100569.20;;;29.00
69545;BMP180;56766;52.260;20.746;2023-06-10T12:32:53;100566.60;;;28.80
69545;BMP180;56766;52.260;20.746;2023-06-10T12:35:23;100574.00;;;28.70
69545;BMP180;56766;52.260;20.746;2023-06-10T12:38:01;100567.40;;;28.70
69545;BMP180;56766;52.260;20.746;2023-06-10T12:40:34;100564.40;;;28.80
69545;BMP180;56766;52.260;20.746;2023-06-10T12:43:03;100563.20;;;29.00
69545;BMP180;56766;52.260;20.746;2023-06-10T12:45:36;100568.40;;;29.30
69545;BMP180;56766;52.260;20.746;2023-06-10T12:48:07;100568.80;;;29.20
69545;BMP180;56766;52.260;20.746;2023-06-10T12:50:37;100567.00;;;28.82
69545;BMP180;56766;52.260;20.746;2023-06-10T12:53:06;100569.00;;;28.60
69545;BMP180;56766;52.260;20.746;2023-06-10T12:55:33;100561.60;;;28.60
69545;BMP180;56766;52.260;20.746;2023-06-10T12:58:01;100559.00;;;28.80
69545;BMP180;56766;52.260;20.746;2023-06-10T13:00:29;100556.40;;;28.90
69545;BMP180;56766;52.260;20.746;2023-06-10T13:03:00;100563.20;;;28.90
69545;BMP180;56766;52.260;20.746;2023-06-10T13:05:28;100558.80;;;28.40
69545;BMP180;56766;52.260;20.746;2023-06-10T13:07:56;100560.40;;;27.88
69545;BMP180;56766;52.260;20.746;2023-06-10T13:10:23;100555.40;;;27.80
69545;BMP180;56766;52.260;20.746;2023-06-10T13:12:50;100557.00;;;27.90
69545;BMP180;56766;52.260;20.746;2023-06-10T13:15:18;100546.60;;;28.00
69545;BMP180;56766;52.260;20.746;2023-06-10T13:17:46;100547.60;;;28.10
69545;BMP180;56766;52.260;20.746;2023-06-10T13:20:16;100540.20;;;28.20
69545;BMP180;56766;52.260;20.746;2023-06-10T13:22:43;100536.40;;;28.38
69545;BMP180;56766;52.260;20.746;2023-06-10T13:25:10;100536.00;;;28.50
69545;BMP180;56766;52.260;20.746;2023-06-10T13:27:37;100537.40;;;28.50
69545;BMP180;56766;52.260;20.746;2023-06-10T13:30:10;100539.80;;;28.40
69545;BMP180;56766;52.260;20.746;2023-06-10T13:32:37;100544.60;;;28.40
69545;BMP180;56766;52.260;20.746;2023-06-10T13:35:04;100532.40;;;28.20
69545;BMP180;56766;52.260;20.746;2023-06-10T13:37:31;100537.20;;;28.30
69545;BMP180;56766;52.260;20.746;2023-06-10T13:40:00;100534.60;;;28.30
69545;BMP180;56766;52.260;20.746;2023-06-10T13:42:27;100528.00;;;28.40
69545;BMP180;56766;52.260;20.746;2023-06-10T13:44:55;100533.20;;;28.34
69545;BMP180;56766;52.260;20.746;2023-06-10T13:47:23;100530.80;;;28.30
69545;BMP180;56766;52.260;20.746;2023-06-10T13:49:51;100537.80;;;28.30
69545;BMP180;56766;52.260;20.746;2023-06-10T13:52:17;100535.40;;;28.48
69545;BMP180;56766;52.260;20.746;2023-06-10T13:54:44;100533.40;;;28.50
69545;BMP180;56766;52.260;20.746;2023-06-10T13:57:11;100535.20;;;28.60
69545;BMP180;56766;52.260;20.746;2023-06-10T13:59:38;100534.40;;;28.58
69545;BMP180;56766;52.260;20.746;2023-06-10T14:02:06;100531.20;;;28.50
69545;BMP180;56766;52.260;20.746;2023-06-10T14:04:32;100533.60;;;28.56
69545;BMP180;56766;52.260;20.746;2023-06-10T14:06:59;100535.40;;;28.70
69545;BMP180;56766;52.260;20.746;2023-06-10T14:09:26;100533.60;;;28.48
69545;BMP180;56766;52.260;20.746;2023-06-10T14:11:52;100532.80;;;28.16
69545;BMP180;56766;52.260;20.746;2023-06-10T14:14:19;100536.60;;;28.08
69545;BMP180;56766;52.260;20.746;2023-06-10T14:16:45;100538.80;;;28.02